Clay City, Kentucky
Current Conditions -  °F | °C
As of 5:15 PM on Monday 24 Nov 2014 (Local Time) from KIOB Reporting Station
Clear Clear  
Wind Chill: 42°   Ceiling: Unl
Heat Index: 46°   Visibility: 10mi
Dew Point: 41°   Wind: 9mph
Humidity: 81%   Direction: 300°WNW
Pressure: 29.8"   Gusts: 16mph
Location:  37.86°N, 83.92°W
Report Text: KIOB 242215Z AUTO 30008G14KT 10SM CLR 08/05 A2980 RMK AO2
Loading
Personal Weather Stations






























Interactive Weather Map New forecast layout! Learn more

10-Day Weather Forecast

Advertisements
Track Severe Weather on mobile